sensor_id;sensor_type;location;lat;lon;timestamp;temperature;humidity
7666;DHT22;3875;46.562;4.898;2022-11-20T00:01:31;7.70;96.50
7666;DHT22;3875;46.562;4.898;2022-11-20T00:03:58;7.70;96.40
7666;DHT22;3875;46.562;4.898;2022-11-20T00:06:28;7.70;96.40
7666;DHT22;3875;46.562;4.898;2022-11-20T00:08:58;7.70;96.30
7666;DHT22;3875;46.562;4.898;2022-11-20T00:11:26;7.70;96.20
7666;DHT22;3875;46.562;4.898;2022-11-20T00:13:54;7.60;96.20
7666;DHT22;3875;46.562;4.898;2022-11-20T00:16:22;7.50;96.50
7666;DHT22;3875;46.562;4.898;2022-11-20T00:18:49;7.50;96.60
7666;DHT22;3875;46.562;4.898;2022-11-20T00:21:18;7.50;96.60
7666;DHT22;3875;46.562;4.898;2022-11-20T00:23:44;7.50;96.60
7666;DHT22;3875;46.562;4.898;2022-11-20T00:26:12;7.40;96.70
7666;DHT22;3875;46.562;4.898;2022-11-20T00:28:38;7.30;96.80
7666;DHT22;3875;46.562;4.898;2022-11-20T00:31:07;7.30;96.80
7666;DHT22;3875;46.562;4.898;2022-11-20T00:33:33;7.20;96.90
7666;DHT22;3875;46.562;4.898;2022-11-20T00:36:06;7.20;97.00
7666;DHT22;3875;46.562;4.898;2022-11-20T00:38:32;7.20;97.20
7666;DHT22;3875;46.562;4.898;2022-11-20T00:41:03;7.20;97.20
7666;DHT22;3875;46.562;4.898;2022-11-20T00:43:29;7.20;97.10
7666;DHT22;3875;46.562;4.898;2022-11-20T00:46:06;7.20;97.10
7666;DHT22;3875;46.562;4.898;2022-11-20T00:48:32;7.30;97.20
7666;DHT22;3875;46.562;4.898;2022-11-20T00:50:59;7.30;97.20
7666;DHT22;3875;46.562;4.898;2022-11-20T00:53:25;7.30;97.10
7666;DHT22;3875;46.562;4.898;2022-11-20T00:58:20;7.40;97.00
7666;DHT22;3875;46.562;4.898;2022-11-20T01:00:46;7.40;97.00
7666;DHT22;3875;46.562;4.898;2022-11-20T01:03:12;7.40;97.00
7666;DHT22;3875;46.562;4.898;2022-11-20T01:05:38;7.50;96.80
7666;DHT22;3875;46.562;4.898;2022-11-20T01:08:03;7.50;96.70
7666;DHT22;3875;46.562;4.898;2022-11-20T01:10:29;7.40;96.80
7666;DHT22;3875;46.562;4.898;2022-11-20T01:12:55;7.40;96.90
7666;DHT22;3875;46.562;4.898;2022-11-20T01:15:39;7.50;96.80
7666;DHT22;3875;46.562;4.898;2022-11-20T01:18:05;7.40;96.70
7666;DHT22;3875;46.562;4.898;2022-11-20T01:20:34;7.50;96.60
7666;DHT22;3875;46.562;4.898;2022-11-20T01:23:02;7.50;96.50
7666;DHT22;3875;46.562;4.898;2022-11-20T01:25:28;7.60;96.40
7666;DHT22;3875;46.562;4.898;2022-11-20T01:27:54;7.60;96.10
7666;DHT22;3875;46.562;4.898;2022-11-20T01:30:19;7.60;96.00
7666;DHT22;3875;46.562;4.898;2022-11-20T01:32:45;7.60;96.10
7666;DHT22;3875;46.562;4.898;2022-11-20T01:35:11;7.60;96.10
7666;DHT22;3875;46.562;4.898;2022-11-20T01:37:37;7.60;96.20
7666;DHT22;3875;46.562;4.898;2022-11-20T01:40:03;7.60;96.10
7666;DHT22;3875;46.562;4.898;2022-11-20T01:42:29;7.70;96.10
7666;DHT22;3875;46.562;4.898;2022-11-20T01:45:50;7.80;95.90
7666;DHT22;3875;46.562;4.898;2022-11-20T01:48:20;7.70;95.60
7666;DHT22;3875;46.562;4.898;2022-11-20T01:50:50;7.80;95.70
7666;DHT22;3875;46.562;4.898;2022-11-20T01:53:18;7.80;95.70
7666;DHT22;3875;46.562;4.898;2022-11-20T01:55:51;7.90;95.70
7666;DHT22;3875;46.562;4.898;2022-11-20T01:58:26;8.00;95.60
7666;DHT22;3875;46.562;4.898;2022-11-20T02:00:52;7.90;95.20
7666;DHT22;3875;46.562;4.898;2022-11-20T02:03:19;7.90;95.30
7666;DHT22;3875;46.562;4.898;2022-11-20T02:06:01;7.80;95.20
7666;DHT22;3875;46.562;4.898;2022-11-20T02:08:29;7.70;95.40
7666;DHT22;3875;46.562;4.898;2022-11-20T02:10:55;7.70;95.70
7666;DHT22;3875;46.562;4.898;2022-11-20T02:13:21;7.70;95.90
7666;DHT22;3875;46.562;4.898;2022-11-20T02:16:31;7.70;95.90
7666;DHT22;3875;46.562;4.898;2022-11-20T02:18:56;7.70;95.80
7666;DHT22;3875;46.562;4.898;2022-11-20T02:24:04;7.80;95.70
7666;DHT22;3875;46.562;4.898;2022-11-20T02:26:33;7.80;95.70
7666;DHT22;3875;46.562;4.898;2022-11-20T02:29:00;7.90;95.50
7666;DHT22;3875;46.562;4.898;2022-11-20T02:31:27;7.90;95.30
7666;DHT22;3875;46.562;4.898;2022-11-20T02:33:56;7.90;95.30
7666;DHT22;3875;46.562;4.898;2022-11-20T02:36:24;7.80;95.30
7666;DHT22;3875;46.562;4.898;2022-11-20T02:38:51;7.80;95.40
7666;DHT22;3875;46.562;4.898;2022-11-20T02:41:17;7.80;95.50
7666;DHT22;3875;46.562;4.898;2022-11-20T02:43:43;7.70;95.60
7666;DHT22;3875;46.562;4.898;2022-11-20T02:46:09;7.80;95.60
7666;DHT22;3875;46.562;4.898;2022-11-20T02:48:34;7.80;95.60
7666;DHT22;3875;46.562;4.898;2022-11-20T02:51:00;7.80;95.70
7666;DHT22;3875;46.562;4.898;2022-11-20T02:53:26;7.80;95.80
7666;DHT22;3875;46.562;4.898;2022-11-20T02:55:52;7.80;95.90
7666;DHT22;3875;46.562;4.898;2022-11-20T02:58:17;7.80;95.90
7666;DHT22;3875;46.562;4.898;2022-11-20T03:00:43;7.80;95.90
7666;DHT22;3875;46.562;4.898;2022-11-20T03:03:09;7.70;95.80
7666;DHT22;3875;46.562;4.898;2022-11-20T03:05:34;7.70;96.10
7666;DHT22;3875;46.562;4.898;2022-11-20T03:08:00;7.70;96.20
7666;DHT22;3875;46.562;4.898;2022-11-20T03:10:26;7.60;96.30
7666;DHT22;3875;46.562;4.898;2022-11-20T03:12:55;7.60;96.50
7666;DHT22;3875;46.562;4.898;2022-11-20T03:15:24;7.60;96.60
7666;DHT22;3875;46.562;4.898;2022-11-20T03:17:53;7.60;96.60
7666;DHT22;3875;46.562;4.898;2022-11-20T03:20:20;7.60;96.60
7666;DHT22;3875;46.562;4.898;2022-11-20T03:22:45;7.60;96.60
7666;DHT22;3875;46.562;4.898;2022-11-20T03:25:11;7.60;96.50
7666;DHT22;3875;46.562;4.898;2022-11-20T03:27:37;7.60;96.40
7666;DHT22;3875;46.562;4.898;2022-11-20T03:30:03;7.60;96.40
7666;DHT22;3875;46.562;4.898;2022-11-20T03:32:30;7.50;96.50
7666;DHT22;3875;46.562;4.898;2022-11-20T03:34:56;7.60;96.60
7666;DHT22;3875;46.562;4.898;2022-11-20T03:37:22;7.50;96.60
7666;DHT22;3875;46.562;4.898;2022-11-20T03:39:48;7.50;96.60
7666;DHT22;3875;46.562;4.898;2022-11-20T03:42:14;7.50;96.80
7666;DHT22;3875;46.562;4.898;2022-11-20T03:44:58;7.40;97.00
7666;DHT22;3875;46.562;4.898;2022-11-20T03:47:23;7.40;97.00
7666;DHT22;3875;46.562;4.898;2022-11-20T03:49:49;7.40;97.10
7666;DHT22;3875;46.562;4.898;2022-11-20T03:52:15;7.40;97.10
7666;DHT22;3875;46.562;4.898;2022-11-20T03:54:40;7.40;97.20
7666;DHT22;3875;46.562;4.898;2022-11-20T03:57:06;7.40;97.10
7666;DHT22;3875;46.562;4.898;2022-11-20T03:59:32;7.40;97.10
7666;DHT22;3875;46.562;4.898;2022-11-20T04:01:58;7.40;96.90
7666;DHT22;3875;46.562;4.898;2022-11-20T04:04:23;7.40;97.00
7666;DHT22;3875;46.562;4.898;2022-11-20T04:06:49;7.40;97.10
7666;DHT22;3875;46.562;4.898;2022-11-20T04:09:15;7.40;97.00
7666;DHT22;3875;46.562;4.898;2022-11-20T04:11:41;7.40;97.00
7666;DHT22;3875;46.562;4.898;2022-11-20T04:14:13;7.50;96.90
7666;DHT22;3875;46.562;4.898;2022-11-20T04:16:39;7.40;97.00
7666;DHT22;3875;46.562;4.898;2022-11-20T04:19:09;7.40;97.10
7666;DHT22;3875;46.562;4.898;2022-11-20T04:21:35;7.40;97.00
7666;DHT22;3875;46.562;4.898;2022-11-20T04:24:01;7.40;97.00
7666;DHT22;3875;46.562;4.898;2022-11-20T04:26:28;7.50;96.90
7666;DHT22;3875;46.562;4.898;2022-11-20T04:28:54;7.50;96.90
7666;DHT22;3875;46.562;4.898;2022-11-20T04:31:22;7.40;96.90
7666;DHT22;3875;46.562;4.898;2022-11-20T04:33:49;7.50;96.80
7666;DHT22;3875;46.562;4.898;2022-11-20T04:36:20;7.60;96.50
7666;DHT22;3875;46.562;4.898;2022-11-20T04:38:49;7.50;96.30
7666;DHT22;3875;46.562;4.898;2022-11-20T04:41:18;7.50;96.60
7666;DHT22;3875;46.562;4.898;2022-11-20T04:43:50;7.50;96.50
7666;DHT22;3875;46.562;4.898;2022-11-20T04:46:17;7.50;96.30
7666;DHT22;3875;46.562;4.898;2022-11-20T04:48:43;7.50;96.30
7666;DHT22;3875;46.562;4.898;2022-11-20T04:51:09;7.50;96.30
7666;DHT22;3875;46.562;4.898;2022-11-20T04:53:34;7.40;96.20
7666;DHT22;3875;46.562;4.898;2022-11-20T04:56:05;7.40;96.20
7666;DHT22;3875;46.562;4.898;2022-11-20T04:58:32;7.40;96.10
7666;DHT22;3875;46.562;4.898;2022-11-20T05:01:18;7.40;96.00
7666;DHT22;3875;46.562;4.898;2022-11-20T05:03:44;7.40;96.00
7666;DHT22;3875;46.562;4.898;2022-11-20T05:06:12;7.40;95.90
7666;DHT22;3875;46.562;4.898;2022-11-20T05:08:38;7.40;95.80
7666;DHT22;3875;46.562;4.898;2022-11-20T05:11:15;7.40;95.80
7666;DHT22;3875;46.562;4.898;2022-11-20T05:13:41;7.40;95.80
7666;DHT22;3875;46.562;4.898;2022-11-20T05:16:10;7.50;95.70
7666;DHT22;3875;46.562;4.898;2022-11-20T05:18:36;7.50;95.60
7666;DHT22;3875;46.562;4.898;2022-11-20T05:21:03;7.50;95.50
7666;DHT22;3875;46.562;4.898;2022-11-20T05:23:30;7.40;95.30
7666;DHT22;3875;46.562;4.898;2022-11-20T05:25:57;7.40;95.20
7666;DHT22;3875;46.562;4.898;2022-11-20T05:28:23;7.40;95.20
7666;DHT22;3875;46.562;4.898;2022-11-20T05:30:49;7.30;95.20
7666;DHT22;3875;46.562;4.898;2022-11-20T05:33:16;7.20;95.50
7666;DHT22;3875;46.562;4.898;2022-11-20T05:35:42;7.20;95.70
7666;DHT22;3875;46.562;4.898;2022-11-20T05:38:08;7.20;95.70
7666;DHT22;3875;46.562;4.898;2022-11-20T05:40:34;7.20;95.70
7666;DHT22;3875;46.562;4.898;2022-11-20T05:43:00;7.10;96.00
7666;DHT22;3875;46.562;4.898;2022-11-20T05:45:25;7.00;96.30
7666;DHT22;3875;46.562;4.898;2022-11-20T05:47:51;6.90;96.70
7666;DHT22;3875;46.562;4.898;2022-11-20T05:50:17;6.90;97.10
7666;DHT22;3875;46.562;4.898;2022-11-20T05:52:42;6.80;97.50
7666;DHT22;3875;46.562;4.898;2022-11-20T05:55:08;6.80;97.80
7666;DHT22;3875;46.562;4.898;2022-11-20T05:57:34;6.80;98.10
7666;DHT22;3875;46.562;4.898;2022-11-20T06:00:01;6.80;98.30
7666;DHT22;3875;46.562;4.898;2022-11-20T06:02:26;6.80;98.50
7666;DHT22;3875;46.562;4.898;2022-11-20T06:04:52;6.80;98.30
7666;DHT22;3875;46.562;4.898;2022-11-20T06:07:18;6.90;98.20
7666;DHT22;3875;46.562;4.898;2022-11-20T06:09:43;6.80;98.20
7666;DHT22;3875;46.562;4.898;2022-11-20T06:12:09;6.80;98.20
7666;DHT22;3875;46.562;4.898;2022-11-20T06:14:35;6.80;98.10
7666;DHT22;3875;46.562;4.898;2022-11-20T06:17:00;6.80;98.00
7666;DHT22;3875;46.562;4.898;2022-11-20T06:19:26;6.90;97.90
7666;DHT22;3875;46.562;4.898;2022-11-20T06:21:52;6.90;97.80
7666;DHT22;3875;46.562;4.898;2022-11-20T06:24:18;6.90;97.70
7666;DHT22;3875;46.562;4.898;2022-11-20T06:26:44;6.90;97.60
7666;DHT22;3875;46.562;4.898;2022-11-20T06:29:10;6.90;97.40
7666;DHT22;3875;46.562;4.898;2022-11-20T06:31:36;6.80;97.50
7666;DHT22;3875;46.562;4.898;2022-11-20T06:34:04;6.70;97.60
7666;DHT22;3875;46.562;4.898;2022-11-20T06:36:30;6.70;97.60
7666;DHT22;3875;46.562;4.898;2022-11-20T06:38:56;6.60;97.80
7666;DHT22;3875;46.562;4.898;2022-11-20T06:41:23;6.60;97.90
7666;DHT22;3875;46.562;4.898;2022-11-20T06:43:49;6.60;97.90
7666;DHT22;3875;46.562;4.898;2022-11-20T06:46:16;6.50;98.00
7666;DHT22;3875;46.562;4.898;2022-11-20T06:48:43;6.50;97.80
7666;DHT22;3875;46.562;4.898;2022-11-20T06:51:09;6.50;97.80
7666;DHT22;3875;46.562;4.898;2022-11-20T06:53:36;6.50;97.70
7666;DHT22;3875;46.562;4.898;2022-11-20T06:56:02;6.50;97.70
7666;DHT22;3875;46.562;4.898;2022-11-20T06:58:30;6.60;97.30
7666;DHT22;3875;46.562;4.898;2022-11-20T07:01:00;6.60;97.20
7666;DHT22;3875;46.562;4.898;2022-11-20T07:03:26;6.70;97.10
7666;DHT22;3875;46.562;4.898;2022-11-20T07:05:54;6.70;96.80
7666;DHT22;3875;46.562;4.898;2022-11-20T07:08:20;6.70;96.70
7666;DHT22;3875;46.562;4.898;2022-11-20T07:10:45;6.70;96.70
7666;DHT22;3875;46.562;4.898;2022-11-20T07:13:11;6.80;96.70
7666;DHT22;3875;46.562;4.898;2022-11-20T07:15:36;6.80;96.60
7666;DHT22;3875;46.562;4.898;2022-11-20T07:18:02;6.70;96.80
7666;DHT22;3875;46.562;4.898;2022-11-20T07:20:28;6.80;96.80
7666;DHT22;3875;46.562;4.898;2022-11-20T07:22:58;6.80;96.60
7666;DHT22;3875;46.562;4.898;2022-11-20T07:25:25;6.80;96.50
7666;DHT22;3875;46.562;4.898;2022-11-20T07:27:50;6.70;96.80
7666;DHT22;3875;46.562;4.898;2022-11-20T07:30:17;6.80;96.90
7666;DHT22;3875;46.562;4.898;2022-11-20T07:32:46;6.80;96.70
7666;DHT22;3875;46.562;4.898;2022-11-20T07:35:12;6.80;96.60
7666;DHT22;3875;46.562;4.898;2022-11-20T07:37:38;6.80;96.30
7666;DHT22;3875;46.562;4.898;2022-11-20T07:40:04;6.80;96.20
7666;DHT22;3875;46.562;4.898;2022-11-20T07:42:30;6.80;96.20
7666;DHT22;3875;46.562;4.898;2022-11-20T07:44:55;6.80;96.00
7666;DHT22;3875;46.562;4.898;2022-11-20T07:47:21;6.80;95.80
7666;DHT22;3875;46.562;4.898;2022-11-20T07:49:47;6.90;95.60
7666;DHT22;3875;46.562;4.898;2022-11-20T07:52:12;6.80;95.40
7666;DHT22;3875;46.562;4.898;2022-11-20T07:54:38;6.80;95.70
7666;DHT22;3875;46.562;4.898;2022-11-20T07:57:04;6.80;95.70
7666;DHT22;3875;46.562;4.898;2022-11-20T07:59:29;6.90;95.60
7666;DHT22;3875;46.562;4.898;2022-11-20T08:01:55;6.90;95.50
7666;DHT22;3875;46.562;4.898;2022-11-20T08:04:21;6.90;95.60
7666;DHT22;3875;46.562;4.898;2022-11-20T08:06:47;6.90;95.50
7666;DHT22;3875;46.562;4.898;2022-11-20T08:09:12;6.90;95.40
7666;DHT22;3875;46.562;4.898;2022-11-20T08:11:38;7.00;95.70
7666;DHT22;3875;46.562;4.898;2022-11-20T08:14:22;7.10;95.30
7666;DHT22;3875;46.562;4.898;2022-11-20T08:16:49;7.00;94.70
7666;DHT22;3875;46.562;4.898;2022-11-20T08:19:17;7.00;94.80
7666;DHT22;3875;46.562;4.898;2022-11-20T08:21:43;7.00;94.40
7666;DHT22;3875;46.562;4.898;2022-11-20T08:24:10;7.00;94.30
7666;DHT22;3875;46.562;4.898;2022-11-20T08:26:37;7.00;94.30
7666;DHT22;3875;46.562;4.898;2022-11-20T08:29:04;7.10;93.90
7666;DHT22;3875;46.562;4.898;2022-11-20T08:31:31;7.20;93.90
7666;DHT22;3875;46.562;4.898;2022-11-20T08:33:57;7.30;93.90
7666;DHT22;3875;46.562;4.898;2022-11-20T08:36:23;7.40;93.90
7666;DHT22;3875;46.562;4.898;2022-11-20T08:38:50;7.50;93.70
7666;DHT22;3875;46.562;4.898;2022-11-20T08:41:17;7.50;93.40
7666;DHT22;3875;46.562;4.898;2022-11-20T08:43:50;7.40;92.70
7666;DHT22;3875;46.562;4.898;2022-11-20T08:46:16;7.50;93.10
7666;DHT22;3875;46.562;4.898;2022-11-20T08:48:42;7.70;93.30
7666;DHT22;3875;46.562;4.898;2022-11-20T08:51:09;7.90;93.20
7666;DHT22;3875;46.562;4.898;2022-11-20T08:53:35;8.10;91.90
7666;DHT22;3875;46.562;4.898;2022-11-20T08:56:00;8.10;91.20
7666;DHT22;3875;46.562;4.898;2022-11-20T08:58:26;8.30;91.40
7666;DHT22;3875;46.562;4.898;2022-11-20T09:01:21;8.40;90.90
7666;DHT22;3875;46.562;4.898;2022-11-20T09:03:56;8.50;90.50
7666;DHT22;3875;46.562;4.898;2022-11-20T09:06:22;8.60;90.20
7666;DHT22;3875;46.562;4.898;2022-11-20T09:08:52;8.70;89.70
7666;DHT22;3875;46.562;4.898;2022-11-20T09:11:18;8.90;90.40
7666;DHT22;3875;46.562;4.898;2022-11-20T09:13:43;9.00;89.80
7666;DHT22;3875;46.562;4.898;2022-11-20T09:16:09;9.20;89.00
7666;DHT22;3875;46.562;4.898;2022-11-20T09:18:36;9.40;89.20
7666;DHT22;3875;46.562;4.898;2022-11-20T09:21:05;9.60;89.00
7666;DHT22;3875;46.562;4.898;2022-11-20T09:23:33;9.60;88.10
7666;DHT22;3875;46.562;4.898;2022-11-20T09:26:05;9.70;88.30
7666;DHT22;3875;46.562;4.898;2022-11-20T09:28:32;9.80;88.20
7666;DHT22;3875;46.562;4.898;2022-11-20T09:30:58;9.90;87.20
7666;DHT22;3875;46.562;4.898;2022-11-20T09:33:24;9.90;86.80
7666;DHT22;3875;46.562;4.898;2022-11-20T09:35:49;10.00;87.50
7666;DHT22;3875;46.562;4.898;2022-11-20T09:38:15;10.20;87.40
7666;DHT22;3875;46.562;4.898;2022-11-20T09:40:47;10.30;86.20
7666;DHT22;3875;46.562;4.898;2022-11-20T09:43:31;10.40;86.50
7666;DHT22;3875;46.562;4.898;2022-11-20T09:46:11;10.30;85.50
7666;DHT22;3875;46.562;4.898;2022-11-20T09:56:42;10.90;84.20
7666;DHT22;3875;46.562;4.898;2022-11-20T09:59:19;10.70;83.60
7666;DHT22;3875;46.562;4.898;2022-11-20T10:01:47;10.70;83.80
7666;DHT22;3875;46.562;4.898;2022-11-20T10:04:16;10.70;84.00
7666;DHT22;3875;46.562;4.898;2022-11-20T10:07:17;10.80;84.10
7666;DHT22;3875;46.562;4.898;2022-11-20T10:09:51;11.20;83.30
7666;DHT22;3875;46.562;4.898;2022-11-20T10:25:38;11.70;81.60
7666;DHT22;3875;46.562;4.898;2022-11-20T10:28:35;11.60;81.40
7666;DHT22;3875;46.562;4.898;2022-11-20T10:31:11;11.70;81.40
7666;DHT22;3875;46.562;4.898;2022-11-20T10:33:44;12.00;81.60
7666;DHT22;3875;46.562;4.898;2022-11-20T10:36:19;12.20;80.80
7666;DHT22;3875;46.562;4.898;2022-11-20T10:39:01;12.30;80.10
7666;DHT22;3875;46.562;4.898;2022-11-20T10:41:33;12.20;79.50
7666;DHT22;3875;46.562;4.898;2022-11-20T10:44:20;12.30;80.00
7666;DHT22;3875;46.562;4.898;2022-11-20T10:47:16;12.40;79.80
7666;DHT22;3875;46.562;4.898;2022-11-20T10:49:48;12.30;78.90
7666;DHT22;3875;46.562;4.898;2022-11-20T11:00:22;12.40;79.10
7666;DHT22;3875;46.562;4.898;2022-11-20T11:02:50;12.30;78.10
7666;DHT22;3875;46.562;4.898;2022-11-20T11:08:04;12.40;79.10
7666;DHT22;3875;46.562;4.898;2022-11-20T11:10:51;12.70;78.80
7666;DHT22;3875;46.562;4.898;2022-11-20T11:13:26;13.00;78.50
7666;DHT22;3875;46.562;4.898;2022-11-20T11:15:53;13.20;77.20
7666;DHT22;3875;46.562;4.898;2022-11-20T11:18:33;13.30;76.30
7666;DHT22;3875;46.562;4.898;2022-11-20T11:21:01;13.30;76.40
7666;DHT22;3875;46.562;4.898;2022-11-20T11:23:37;13.40;76.50
7666;DHT22;3875;46.562;4.898;2022-11-20T11:26:06;13.30;76.20
7666;DHT22;3875;46.562;4.898;2022-11-20T11:28:32;13.20;76.00
7666;DHT22;3875;46.562;4.898;2022-11-20T11:30:58;12.90;76.20
7666;DHT22;3875;46.562;4.898;2022-11-20T11:33:29;12.60;76.60
7666;DHT22;3875;46.562;4.898;2022-11-20T11:35:57;12.50;77.20
7666;DHT22;3875;46.562;4.898;2022-11-20T11:40:56;12.50;77.60
7666;DHT22;3875;46.562;4.898;2022-11-20T11:43:25;12.60;77.30
7666;DHT22;3875;46.562;4.898;2022-11-20T11:46:34;12.90;77.30
7666;DHT22;3875;46.562;4.898;2022-11-20T11:52:03;13.40;74.50
7666;DHT22;3875;46.562;4.898;2022-11-20T11:55:03;12.90;74.40
7666;DHT22;3875;46.562;4.898;2022-11-20T11:57:37;12.50;75.30
7666;DHT22;3875;46.562;4.898;2022-11-20T12:00:17;12.20;76.20
7666;DHT22;3875;46.562;4.898;2022-11-20T12:05:30;12.30;77.80
7666;DHT22;3875;46.562;4.898;2022-11-20T12:08:26;12.70;77.50
7666;DHT22;3875;46.562;4.898;2022-11-20T12:11:05;13.20;76.90
7666;DHT22;3875;46.562;4.898;2022-11-20T12:13:58;13.40;75.70
7666;DHT22;3875;46.562;4.898;2022-11-20T12:16:33;13.70;75.00
7666;DHT22;3875;46.562;4.898;2022-11-20T12:19:00;13.70;73.80
7666;DHT22;3875;46.562;4.898;2022-11-20T12:21:54;13.60;73.90
7666;DHT22;3875;46.562;4.898;2022-11-20T12:30:17;13.60;74.20
7666;DHT22;3875;46.562;4.898;2022-11-20T12:39:02;13.50;76.60
7666;DHT22;3875;46.562;4.898;2022-11-20T12:50:17;13.20;75.90
7666;DHT22;3875;46.562;4.898;2022-11-20T12:52:56;13.00;76.10
7666;DHT22;3875;46.562;4.898;2022-11-20T12:58:17;12.80;77.50
7666;DHT22;3875;46.562;4.898;2022-11-20T13:01:00;12.70;77.80
7666;DHT22;3875;46.562;4.898;2022-11-20T13:03:42;12.50;77.80
7666;DHT22;3875;46.562;4.898;2022-11-20T13:06:17;12.40;78.60
7666;DHT22;3875;46.562;4.898;2022-11-20T13:08:56;12.40;78.80
7666;DHT22;3875;46.562;4.898;2022-11-20T13:19:26;12.00;78.60
7666;DHT22;3875;46.562;4.898;2022-11-20T13:21:54;11.90;79.20
7666;DHT22;3875;46.562;4.898;2022-11-20T13:26:46;11.80;78.90
7666;DHT22;3875;46.562;4.898;2022-11-20T13:29:17;11.70;79.10
7666;DHT22;3875;46.562;4.898;2022-11-20T13:31:45;11.70;79.80
7666;DHT22;3875;46.562;4.898;2022-11-20T13:34:22;11.80;79.50
7666;DHT22;3875;46.562;4.898;2022-11-20T13:36:54;11.90;79.70
7666;DHT22;3875;46.562;4.898;2022-11-20T13:39:29;12.10;79.80
7666;DHT22;3875;46.562;4.898;2022-11-20T13:44:49;12.30;78.70
7666;DHT22;3875;46.562;4.898;2022-11-20T13:47:22;12.20;78.30
7666;DHT22;3875;46.562;4.898;2022-11-20T13:49:48;12.20;78.40
7666;DHT22;3875;46.562;4.898;2022-11-20T14:00:57;11.70;77.90
7666;DHT22;3875;46.562;4.898;2022-11-20T14:03:24;11.70;78.60
7666;DHT22;3875;46.562;4.898;2022-11-20T14:06:01;11.70;79.30
7666;DHT22;3875;46.562;4.898;2022-11-20T14:08:36;11.80;79.20
7666;DHT22;3875;46.562;4.898;2022-11-20T14:11:05;11.90;79.30
7666;DHT22;3875;46.562;4.898;2022-11-20T14:13:32;12.00;78.60
7666;DHT22;3875;46.562;4.898;2022-11-20T14:15:58;12.00;78.80
7666;DHT22;3875;46.562;4.898;2022-11-20T14:18:26;12.00;78.00
7666;DHT22;3875;46.562;4.898;2022-11-20T14:20:52;12.00;78.60
7666;DHT22;3875;46.562;4.898;2022-11-20T14:23:27;11.90;78.30
7666;DHT22;3875;46.562;4.898;2022-11-20T14:25:54;11.80;78.50
7666;DHT22;3875;46.562;4.898;2022-11-20T14:28:30;11.80;78.80
7666;DHT22;3875;46.562;4.898;2022-11-20T14:30:57;11.80;78.40
7666;DHT22;3875;46.562;4.898;2022-11-20T14:33:25;11.70;78.00
7666;DHT22;3875;46.562;4.898;2022-11-20T14:35:56;11.60;78.40
7666;DHT22;3875;46.562;4.898;2022-11-20T14:38:26;11.60;79.10
7666;DHT22;3875;46.562;4.898;2022-11-20T14:40:52;11.50;78.90
7666;DHT22;3875;46.562;4.898;2022-11-20T14:43:26;11.40;78.90
7666;DHT22;3875;46.562;4.898;2022-11-20T14:46:08;11.40;79.50
7666;DHT22;3875;46.562;4.898;2022-11-20T14:48:46;11.40;79.50
7666;DHT22;3875;46.562;4.898;2022-11-20T14:51:32;11.40;80.00
7666;DHT22;3875;46.562;4.898;2022-11-20T14:54:18;11.40;79.90
7666;DHT22;3875;46.562;4.898;2022-11-20T14:56:56;11.40;79.80
7666;DHT22;3875;46.562;4.898;2022-11-20T14:59:24;11.30;79.90
7666;DHT22;3875;46.562;4.898;2022-11-20T15:02:19;11.30;79.70
7666;DHT22;3875;46.562;4.898;2022-11-20T15:04:57;11.20;79.30
7666;DHT22;3875;46.562;4.898;2022-11-20T15:07:26;11.20;79.80
7666;DHT22;3875;46.562;4.898;2022-11-20T15:10:06;11.10;79.90
7666;DHT22;3875;46.562;4.898;2022-11-20T15:12:37;11.10;80.30
7666;DHT22;3875;46.562;4.898;2022-11-20T15:15:05;11.10;80.10
7666;DHT22;3875;46.562;4.898;2022-11-20T15:17:31;11.00;80.70
7666;DHT22;3875;46.562;4.898;2022-11-20T15:19:59;10.90;81.30
7666;DHT22;3875;46.562;4.898;2022-11-20T15:22:26;10.90;81.40
7666;DHT22;3875;46.562;4.898;2022-11-20T15:24:52;10.80;81.90
7666;DHT22;3875;46.562;4.898;2022-11-20T15:27:18;10.80;82.00
7666;DHT22;3875;46.562;4.898;2022-11-20T15:29:43;10.70;82.40
7666;DHT22;3875;46.562;4.898;2022-11-20T15:32:09;10.70;82.70
7666;DHT22;3875;46.562;4.898;2022-11-20T15:34:35;10.60;82.80
7666;DHT22;3875;46.562;4.898;2022-11-20T15:37:01;10.60;83.20
7666;DHT22;3875;46.562;4.898;2022-11-20T15:39:26;10.60;83.50
7666;DHT22;3875;46.562;4.898;2022-11-20T15:41:52;10.50;83.60
7666;DHT22;3875;46.562;4.898;2022-11-20T15:44:18;10.50;84.00
7666;DHT22;3875;46.562;4.898;2022-11-20T15:46:44;10.40;84.30
7666;DHT22;3875;46.562;4.898;2022-11-20T15:49:14;10.40;84.50
7666;DHT22;3875;46.562;4.898;2022-11-20T15:51:43;10.40;84.90
7666;DHT22;3875;46.562;4.898;2022-11-20T15:54:17;10.40;85.00
7666;DHT22;3875;46.562;4.898;2022-11-20T15:56:45;10.30;85.30
7666;DHT22;3875;46.562;4.898;2022-11-20T15:59:11;10.30;85.70
7666;DHT22;3875;46.562;4.898;2022-11-20T16:01:40;10.30;85.90
7666;DHT22;3875;46.562;4.898;2022-11-20T16:04:13;10.30;86.30
7666;DHT22;3875;46.562;4.898;2022-11-20T16:06:39;10.20;86.40
7666;DHT22;3875;46.562;4.898;2022-11-20T16:09:05;10.20;86.60
7666;DHT22;3875;46.562;4.898;2022-11-20T16:11:30;10.10;86.80
7666;DHT22;3875;46.562;4.898;2022-11-20T16:13:56;10.10;86.70
7666;DHT22;3875;46.562;4.898;2022-11-20T16:16:41;10.00;86.50
7666;DHT22;3875;46.562;4.898;2022-11-20T16:19:12;10.00;86.60
7666;DHT22;3875;46.562;4.898;2022-11-20T16:21:38;9.90;86.80
7666;DHT22;3875;46.562;4.898;2022-11-20T16:24:08;9.90;87.00
7666;DHT22;3875;46.562;4.898;2022-11-20T16:26:34;9.90;87.20
7666;DHT22;3875;46.562;4.898;2022-11-20T16:29:01;9.80;87.50
7666;DHT22;3875;46.562;4.898;2022-11-20T16:31:28;9.80;87.30
7666;DHT22;3875;46.562;4.898;2022-11-20T16:33:55;9.70;87.50
7666;DHT22;3875;46.562;4.898;2022-11-20T16:36:23;9.70;87.60
7666;DHT22;3875;46.562;4.898;2022-11-20T16:38:58;9.70;87.70
7666;DHT22;3875;46.562;4.898;2022-11-20T16:41:25;9.70;87.80
7666;DHT22;3875;46.562;4.898;2022-11-20T16:43:56;9.60;88.10
7666;DHT22;3875;46.562;4.898;2022-11-20T16:46:29;9.60;88.20
7666;DHT22;3875;46.562;4.898;2022-11-20T16:49:04;9.50;88.30
7666;DHT22;3875;46.562;4.898;2022-11-20T16:51:33;9.50;88.40
7666;DHT22;3875;46.562;4.898;2022-11-20T16:54:02;9.50;88.80
7666;DHT22;3875;46.562;4.898;2022-11-20T16:56:27;9.50;88.90
7666;DHT22;3875;46.562;4.898;2022-11-20T16:59:32;9.50;89.20
7666;DHT22;3875;46.562;4.898;2022-11-20T17:06:23;9.40;89.60
7666;DHT22;3875;46.562;4.898;2022-11-20T17:09:21;9.40;89.70
7666;DHT22;3875;46.562;4.898;2022-11-20T17:12:13;9.30;89.90
7666;DHT22;3875;46.562;4.898;2022-11-20T17:14:48;9.30;90.20
7666;DHT22;3875;46.562;4.898;2022-11-20T17:17:14;9.30;90.40
7666;DHT22;3875;46.562;4.898;2022-11-20T17:20:25;9.20;90.60
7666;DHT22;3875;46.562;4.898;2022-11-20T17:23:11;9.20;90.80
7666;DHT22;3875;46.562;4.898;2022-11-20T17:25:37;9.20;91.00
7666;DHT22;3875;46.562;4.898;2022-11-20T17:28:03;9.10;91.10
7666;DHT22;3875;46.562;4.898;2022-11-20T17:30:29;9.10;91.30
7666;DHT22;3875;46.562;4.898;2022-11-20T17:32:55;9.10;91.30
7666;DHT22;3875;46.562;4.898;2022-11-20T17:35:20;9.10;91.30
7666;DHT22;3875;46.562;4.898;2022-11-20T17:37:46;9.10;91.40
7666;DHT22;3875;46.562;4.898;2022-11-20T17:40:12;9.10;91.40
7666;DHT22;3875;46.562;4.898;2022-11-20T17:42:37;9.10;91.40
7666;DHT22;3875;46.562;4.898;2022-11-20T17:45:04;9.00;91.60
7666;DHT22;3875;46.562;4.898;2022-11-20T17:47:30;8.90;91.70
7666;DHT22;3875;46.562;4.898;2022-11-20T17:49:56;9.00;91.80
7666;DHT22;3875;46.562;4.898;2022-11-20T17:52:21;8.90;92.00
7666;DHT22;3875;46.562;4.898;2022-11-20T17:54:47;8.90;92.10
7666;DHT22;3875;46.562;4.898;2022-11-20T17:57:13;8.90;92.10
7666;DHT22;3875;46.562;4.898;2022-11-20T17:59:57;8.90;92.10
7666;DHT22;3875;46.562;4.898;2022-11-20T18:02:23;8.90;92.30
7666;DHT22;3875;46.562;4.898;2022-11-20T18:04:49;9.00;92.20